sensor_id;sensor_type;location;lat;lon;timestamp;P1;durP1;ratioP1;P2;durP2;ratioP2
59418;SDS011;45224;50.904;6.038;2023-04-15T00:00:42;6.87;;;2.33;;
59418;SDS011;45224;50.904;6.038;2023-04-15T00:02:13;7.03;;;2.70;;
59418;SDS011;45224;50.904;6.038;2023-04-15T00:03:45;4.65;;;2.30;;
59418;SDS011;45224;50.904;6.038;2023-04-15T00:05:19;6.43;;;2.60;;
59418;SDS011;45224;50.904;6.038;2023-04-15T00:06:51;4.53;;;2.30;;
59418;SDS011;45224;50.904;6.038;2023-04-15T00:08:22;5.72;;;2.92;;
59418;SDS011;45224;50.904;6.038;2023-04-15T00:09:52;5.97;;;2.03;;
59418;SDS011;45224;50.904;6.038;2023-04-15T00:11:25;6.88;;;2.28;;
59418;SDS011;45224;50.904;6.038;2023-04-15T00:12:55;5.87;;;2.23;;
59418;SDS011;45224;50.904;6.038;2023-04-15T00:14:26;4.40;;;2.08;;
59418;SDS011;45224;50.904;6.038;2023-04-15T00:15:57;4.67;;;2.13;;
59418;SDS011;45224;50.904;6.038;2023-04-15T00:17:27;5.23;;;2.30;;
59418;SDS011;45224;50.904;6.038;2023-04-15T00:18:58;7.43;;;2.70;;
59418;SDS011;45224;50.904;6.038;2023-04-15T00:20:28;5.23;;;2.30;;
59418;SDS011;45224;50.904;6.038;2023-04-15T00:21:59;5.00;;;2.63;;
59418;SDS011;45224;50.904;6.038;2023-04-15T00:23:30;5.70;;;2.00;;
59418;SDS011;45224;50.904;6.038;2023-04-15T00:25:01;3.78;;;2.20;;
59418;SDS011;45224;50.904;6.038;2023-04-15T00:26:32;5.55;;;2.63;;
59418;SDS011;45224;50.904;6.038;2023-04-15T00:28:03;5.50;;;2.28;;
59418;SDS011;45224;50.904;6.038;2023-04-15T00:29:33;5.85;;;2.47;;
59418;SDS011;45224;50.904;6.038;2023-04-15T00:31:04;6.68;;;2.38;;
59418;SDS011;45224;50.904;6.038;2023-04-15T00:32:35;4.47;;;2.07;;
59418;SDS011;45224;50.904;6.038;2023-04-15T00:34:05;3.73;;;2.37;;
59418;SDS011;45224;50.904;6.038;2023-04-15T00:35:36;5.77;;;2.37;;
59418;SDS011;45224;50.904;6.038;2023-04-15T00:37:08;5.43;;;2.50;;
59418;SDS011;45224;50.904;6.038;2023-04-15T00:38:39;3.67;;;2.28;;
59418;SDS011;45224;50.904;6.038;2023-04-15T00:40:11;5.13;;;2.38;;
59418;SDS011;45224;50.904;6.038;2023-04-15T00:41:43;4.18;;;2.03;;
59418;SDS011;45224;50.904;6.038;2023-04-15T00:43:15;6.38;;;2.17;;
59418;SDS011;45224;50.904;6.038;2023-04-15T00:44:47;8.32;;;2.20;;
59418;SDS011;45224;50.904;6.038;2023-04-15T00:46:18;5.30;;;2.40;;
59418;SDS011;45224;50.904;6.038;2023-04-15T00:47:50;5.00;;;2.20;;
59418;SDS011;45224;50.904;6.038;2023-04-15T00:49:21;8.33;;;2.27;;
59418;SDS011;45224;50.904;6.038;2023-04-15T00:50:52;4.68;;;2.00;;
59418;SDS011;45224;50.904;6.038;2023-04-15T00:52:22;5.47;;;2.20;;
59418;SDS011;45224;50.904;6.038;2023-04-15T00:53:54;4.13;;;1.88;;
59418;SDS011;45224;50.904;6.038;2023-04-15T00:55:25;7.03;;;2.03;;
59418;SDS011;45224;50.904;6.038;2023-04-15T00:56:55;6.83;;;2.20;;
59418;SDS011;45224;50.904;6.038;2023-04-15T00:58:27;3.08;;;1.90;;
59418;SDS011;45224;50.904;6.038;2023-04-15T00:59:58;4.57;;;2.15;;
59418;SDS011;45224;50.904;6.038;2023-04-15T01:01:30;6.43;;;2.17;;
59418;SDS011;45224;50.904;6.038;2023-04-15T01:03:00;6.82;;;2.45;;
59418;SDS011;45224;50.904;6.038;2023-04-15T01:04:32;4.28;;;1.98;;
59418;SDS011;45224;50.904;6.038;2023-04-15T01:06:02;4.37;;;2.30;;
59418;SDS011;45224;50.904;6.038;2023-04-15T01:07:33;3.80;;;1.77;;
59418;SDS011;45224;50.904;6.038;2023-04-15T01:09:04;5.10;;;2.10;;
59418;SDS011;45224;50.904;6.038;2023-04-15T01:10:34;3.65;;;1.90;;
59418;SDS011;45224;50.904;6.038;2023-04-15T01:12:06;5.38;;;2.35;;
59418;SDS011;45224;50.904;6.038;2023-04-15T01:13:37;6.32;;;2.40;;
59418;SDS011;45224;50.904;6.038;2023-04-15T01:15:08;5.20;;;2.10;;
59418;SDS011;45224;50.904;6.038;2023-04-15T01:18:11;6.33;;;2.07;;
59418;SDS011;45224;50.904;6.038;2023-04-15T01:19:41;6.47;;;2.30;;
59418;SDS011;45224;50.904;6.038;2023-04-15T01:21:12;5.93;;;2.13;;
59418;SDS011;45224;50.904;6.038;2023-04-15T01:22:43;6.15;;;2.63;;
59418;SDS011;45224;50.904;6.038;2023-04-15T01:24:14;4.43;;;2.03;;
59418;SDS011;45224;50.904;6.038;2023-04-15T01:25:48;5.65;;;2.08;;
59418;SDS011;45224;50.904;6.038;2023-04-15T01:27:19;3.78;;;1.83;;
59418;SDS011;45224;50.904;6.038;2023-04-15T01:30:20;3.58;;;1.73;;
59418;SDS011;45224;50.904;6.038;2023-04-15T01:31:51;4.87;;;2.03;;
59418;SDS011;45224;50.904;6.038;2023-04-15T01:33:24;5.70;;;1.85;;
59418;SDS011;45224;50.904;6.038;2023-04-15T01:34:54;6.10;;;2.08;;
59418;SDS011;45224;50.904;6.038;2023-04-15T01:36:27;4.55;;;1.70;;
59418;SDS011;45224;50.904;6.038;2023-04-15T01:39:35;4.40;;;1.90;;
59418;SDS011;45224;50.904;6.038;2023-04-15T01:41:05;5.87;;;2.10;;
59418;SDS011;45224;50.904;6.038;2023-04-15T01:42:39;4.15;;;1.70;;
59418;SDS011;45224;50.904;6.038;2023-04-15T01:44:10;3.97;;;1.60;;
59418;SDS011;45224;50.904;6.038;2023-04-15T01:45:43;4.30;;;1.77;;
59418;SDS011;45224;50.904;6.038;2023-04-15T01:47:13;3.93;;;2.27;;
59418;SDS011;45224;50.904;6.038;2023-04-15T01:48:45;2.85;;;1.50;;
59418;SDS011;45224;50.904;6.038;2023-04-15T01:50:15;5.10;;;2.10;;
59418;SDS011;45224;50.904;6.038;2023-04-15T01:51:46;5.47;;;1.80;;
59418;SDS011;45224;50.904;6.038;2023-04-15T01:53:16;4.53;;;1.80;;
59418;SDS011;45224;50.904;6.038;2023-04-15T01:54:47;2.78;;;1.55;;
59418;SDS011;45224;50.904;6.038;2023-04-15T01:56:18;3.27;;;1.80;;
59418;SDS011;45224;50.904;6.038;2023-04-15T01:57:49;5.82;;;1.85;;
59418;SDS011;45224;50.904;6.038;2023-04-15T01:59:20;3.70;;;2.03;;
59418;SDS011;45224;50.904;6.038;2023-04-15T02:00:51;2.80;;;1.70;;
59418;SDS011;45224;50.904;6.038;2023-04-15T02:02:21;3.35;;;1.95;;
59418;SDS011;45224;50.904;6.038;2023-04-15T02:03:52;7.23;;;1.73;;
59418;SDS011;45224;50.904;6.038;2023-04-15T02:05:22;3.85;;;1.60;;
59418;SDS011;45224;50.904;6.038;2023-04-15T02:06:53;5.83;;;2.13;;
59418;SDS011;45224;50.904;6.038;2023-04-15T02:08:25;5.15;;;1.80;;
59418;SDS011;45224;50.904;6.038;2023-04-15T02:09:56;4.47;;;1.60;;
59418;SDS011;45224;50.904;6.038;2023-04-15T02:11:26;5.28;;;2.30;;
59418;SDS011;45224;50.904;6.038;2023-04-15T02:12:57;3.00;;;1.70;;
59418;SDS011;45224;50.904;6.038;2023-04-15T02:14:31;3.75;;;1.98;;
59418;SDS011;45224;50.904;6.038;2023-04-15T02:16:01;5.18;;;1.98;;
59418;SDS011;45224;50.904;6.038;2023-04-15T02:17:35;3.72;;;1.85;;
59418;SDS011;45224;50.904;6.038;2023-04-15T02:19:06;2.65;;;1.65;;
59418;SDS011;45224;50.904;6.038;2023-04-15T02:20:37;2.60;;;1.60;;
59418;SDS011;45224;50.904;6.038;2023-04-15T02:22:08;4.32;;;2.00;;
59418;SDS011;45224;50.904;6.038;2023-04-15T02:23:40;3.55;;;1.80;;
59418;SDS011;45224;50.904;6.038;2023-04-15T02:25:11;4.77;;;1.70;;
59418;SDS011;45224;50.904;6.038;2023-04-15T02:26:41;2.47;;;1.57;;
59418;SDS011;45224;50.904;6.038;2023-04-15T02:28:11;4.93;;;2.10;;
59418;SDS011;45224;50.904;6.038;2023-04-15T02:29:43;3.53;;;1.90;;
59418;SDS011;45224;50.904;6.038;2023-04-15T02:31:14;4.38;;;1.88;;
59418;SDS011;45224;50.904;6.038;2023-04-15T02:32:45;6.53;;;2.42;;
59418;SDS011;45224;50.904;6.038;2023-04-15T02:34:16;5.47;;;2.63;;
59418;SDS011;45224;50.904;6.038;2023-04-15T02:35:48;5.05;;;2.20;;
59418;SDS011;45224;50.904;6.038;2023-04-15T02:37:18;4.67;;;2.70;;
59418;SDS011;45224;50.904;6.038;2023-04-15T02:38:50;4.90;;;2.45;;
59418;SDS011;45224;50.904;6.038;2023-04-15T02:40:20;5.15;;;2.35;;
59418;SDS011;45224;50.904;6.038;2023-04-15T02:41:51;6.97;;;2.40;;
59418;SDS011;45224;50.904;6.038;2023-04-15T02:43:22;5.03;;;2.73;;
59418;SDS011;45224;50.904;6.038;2023-04-15T02:44:54;10.38;;;2.55;;
59418;SDS011;45224;50.904;6.038;2023-04-15T02:46:28;4.13;;;2.40;;
59418;SDS011;45224;50.904;6.038;2023-04-15T02:47:58;5.47;;;2.40;;
59418;SDS011;45224;50.904;6.038;2023-04-15T02:49:32;5.65;;;2.65;;
59418;SDS011;45224;50.904;6.038;2023-04-15T02:51:13;7.60;;;2.70;;
59418;SDS011;45224;50.904;6.038;2023-04-15T02:52:46;5.60;;;2.47;;
59418;SDS011;45224;50.904;6.038;2023-04-15T02:54:19;5.00;;;2.30;;
59418;SDS011;45224;50.904;6.038;2023-04-15T02:55:52;6.47;;;2.42;;
59418;SDS011;45224;50.904;6.038;2023-04-15T02:57:22;7.30;;;2.70;;
59418;SDS011;45224;50.904;6.038;2023-04-15T02:58:53;5.50;;;3.00;;
59418;SDS011;45224;50.904;6.038;2023-04-15T03:00:26;7.93;;;2.60;;
59418;SDS011;45224;50.904;6.038;2023-04-15T03:01:57;5.93;;;2.90;;
59418;SDS011;45224;50.904;6.038;2023-04-15T03:03:30;7.45;;;2.80;;
59418;SDS011;45224;50.904;6.038;2023-04-15T03:05:01;5.63;;;2.38;;
59418;SDS011;45224;50.904;6.038;2023-04-15T03:06:32;6.32;;;2.67;;
59418;SDS011;45224;50.904;6.038;2023-04-15T03:08:03;5.40;;;2.50;;
59418;SDS011;45224;50.904;6.038;2023-04-15T03:09:34;4.95;;;2.67;;
59418;SDS011;45224;50.904;6.038;2023-04-15T03:11:07;6.97;;;2.58;;
59418;SDS011;45224;50.904;6.038;2023-04-15T03:12:40;4.93;;;2.50;;
59418;SDS011;45224;50.904;6.038;2023-04-15T03:14:13;5.93;;;2.65;;
59418;SDS011;45224;50.904;6.038;2023-04-15T03:15:48;5.60;;;2.38;;
59418;SDS011;45224;50.904;6.038;2023-04-15T03:17:18;3.87;;;2.40;;
59418;SDS011;45224;50.904;6.038;2023-04-15T03:18:49;5.03;;;2.50;;
59418;SDS011;45224;50.904;6.038;2023-04-15T03:20:20;5.82;;;2.63;;
59418;SDS011;45224;50.904;6.038;2023-04-15T03:21:51;5.40;;;2.08;;
59418;SDS011;45224;50.904;6.038;2023-04-15T03:23:22;4.28;;;2.03;;
59418;SDS011;45224;50.904;6.038;2023-04-15T03:24:54;4.90;;;2.20;;
59418;SDS011;45224;50.904;6.038;2023-04-15T03:26:28;4.07;;;2.33;;
59418;SDS011;45224;50.904;6.038;2023-04-15T03:28:04;4.85;;;2.63;;
59418;SDS011;45224;50.904;6.038;2023-04-15T03:29:36;4.05;;;1.90;;
59418;SDS011;45224;50.904;6.038;2023-04-15T03:31:07;6.97;;;2.13;;
59418;SDS011;45224;50.904;6.038;2023-04-15T03:32:37;3.70;;;2.20;;
59418;SDS011;45224;50.904;6.038;2023-04-15T03:34:10;4.35;;;2.15;;
59418;SDS011;45224;50.904;6.038;2023-04-15T03:35:40;3.30;;;1.92;;
59418;SDS011;45224;50.904;6.038;2023-04-15T03:37:11;3.87;;;1.93;;
59418;SDS011;45224;50.904;6.038;2023-04-15T03:38:42;4.17;;;2.30;;
59418;SDS011;45224;50.904;6.038;2023-04-15T03:40:12;3.63;;;2.17;;
59418;SDS011;45224;50.904;6.038;2023-04-15T03:41:43;5.70;;;2.47;;
59418;SDS011;45224;50.904;6.038;2023-04-15T03:43:13;4.03;;;1.97;;
59418;SDS011;45224;50.904;6.038;2023-04-15T03:44:44;5.33;;;2.17;;
59418;SDS011;45224;50.904;6.038;2023-04-15T03:46:14;7.33;;;2.17;;
59418;SDS011;45224;50.904;6.038;2023-04-15T03:47:45;4.27;;;2.10;;
59418;SDS011;45224;50.904;6.038;2023-04-15T03:49:15;3.67;;;1.90;;
59418;SDS011;45224;50.904;6.038;2023-04-15T03:50:46;3.50;;;2.00;;
59418;SDS011;45224;50.904;6.038;2023-04-15T03:52:17;4.93;;;2.00;;
59418;SDS011;45224;50.904;6.038;2023-04-15T03:53:47;7.33;;;2.27;;
59418;SDS011;45224;50.904;6.038;2023-04-15T03:55:18;4.10;;;2.20;;
59418;SDS011;45224;50.904;6.038;2023-04-15T03:56:49;3.15;;;2.00;;
59418;SDS011;45224;50.904;6.038;2023-04-15T03:58:20;6.07;;;2.30;;
59418;SDS011;45224;50.904;6.038;2023-04-15T03:59:50;3.93;;;2.20;;
59418;SDS011;45224;50.904;6.038;2023-04-15T04:01:21;6.00;;;2.00;;
59418;SDS011;45224;50.904;6.038;2023-04-15T04:02:52;5.53;;;2.03;;
59418;SDS011;45224;50.904;6.038;2023-04-15T04:04:22;2.83;;;1.70;;
59418;SDS011;45224;50.904;6.038;2023-04-15T04:05:53;3.53;;;2.17;;
59418;SDS011;45224;50.904;6.038;2023-04-15T04:07:23;4.60;;;1.83;;
59418;SDS011;45224;50.904;6.038;2023-04-15T04:08:54;4.47;;;2.10;;
59418;SDS011;45224;50.904;6.038;2023-04-15T04:10:25;3.95;;;1.75;;
59418;SDS011;45224;50.904;6.038;2023-04-15T04:11:56;5.20;;;2.10;;
59418;SDS011;45224;50.904;6.038;2023-04-15T04:13:27;5.50;;;1.85;;
59418;SDS011;45224;50.904;6.038;2023-04-15T04:14:57;4.43;;;2.10;;
59418;SDS011;45224;50.904;6.038;2023-04-15T04:16:27;5.37;;;2.10;;
59418;SDS011;45224;50.904;6.038;2023-04-15T04:17:58;3.80;;;1.77;;
59418;SDS011;45224;50.904;6.038;2023-04-15T04:19:28;3.37;;;2.03;;
59418;SDS011;45224;50.904;6.038;2023-04-15T04:20:59;3.37;;;1.77;;
59418;SDS011;45224;50.904;6.038;2023-04-15T04:22:30;3.88;;;2.33;;
59418;SDS011;45224;50.904;6.038;2023-04-15T04:24:00;5.13;;;1.90;;
59418;SDS011;45224;50.904;6.038;2023-04-15T04:25:31;5.50;;;2.30;;
59418;SDS011;45224;50.904;6.038;2023-04-15T04:27:02;3.97;;;1.80;;
59418;SDS011;45224;50.904;6.038;2023-04-15T04:28:32;4.63;;;2.10;;
59418;SDS011;45224;50.904;6.038;2023-04-15T04:31:35;8.95;;;2.10;;
59418;SDS011;45224;50.904;6.038;2023-04-15T04:33:06;3.63;;;2.00;;
59418;SDS011;45224;50.904;6.038;2023-04-15T04:34:37;4.53;;;2.30;;
59418;SDS011;45224;50.904;6.038;2023-04-15T04:36:07;5.47;;;2.23;;
59418;SDS011;45224;50.904;6.038;2023-04-15T04:37:37;4.40;;;1.90;;
59418;SDS011;45224;50.904;6.038;2023-04-15T04:39:08;6.20;;;2.30;;
59418;SDS011;45224;50.904;6.038;2023-04-15T04:40:38;4.27;;;1.70;;
59418;SDS011;45224;50.904;6.038;2023-04-15T04:42:09;3.83;;;1.90;;
59418;SDS011;45224;50.904;6.038;2023-04-15T04:43:40;3.50;;;2.03;;
59418;SDS011;45224;50.904;6.038;2023-04-15T04:45:10;4.97;;;2.00;;
59418;SDS011;45224;50.904;6.038;2023-04-15T04:46:41;5.53;;;2.00;;
59418;SDS011;45224;50.904;6.038;2023-04-15T04:48:11;8.10;;;2.43;;
59418;SDS011;45224;50.904;6.038;2023-04-15T04:49:42;4.07;;;2.07;;
59418;SDS011;45224;50.904;6.038;2023-04-15T04:51:12;3.97;;;1.93;;
59418;SDS011;45224;50.904;6.038;2023-04-15T04:52:43;4.37;;;2.10;;
59418;SDS011;45224;50.904;6.038;2023-04-15T04:54:13;5.77;;;2.20;;
59418;SDS011;45224;50.904;6.038;2023-04-15T04:55:44;6.33;;;2.00;;
59418;SDS011;45224;50.904;6.038;2023-04-15T04:57:14;6.27;;;2.30;;
59418;SDS011;45224;50.904;6.038;2023-04-15T04:58:45;3.97;;;1.83;;
59418;SDS011;45224;50.904;6.038;2023-04-15T05:00:16;6.90;;;2.17;;
59418;SDS011;45224;50.904;6.038;2023-04-15T05:01:46;7.15;;;2.83;;
59418;SDS011;45224;50.904;6.038;2023-04-15T05:03:17;7.53;;;2.07;;
59418;SDS011;45224;50.904;6.038;2023-04-15T05:04:47;5.27;;;2.20;;
59418;SDS011;45224;50.904;6.038;2023-04-15T05:06:19;6.55;;;1.98;;
59418;SDS011;45224;50.904;6.038;2023-04-15T05:07:49;5.53;;;2.30;;
59418;SDS011;45224;50.904;6.038;2023-04-15T05:09:20;7.33;;;2.40;;
59418;SDS011;45224;50.904;6.038;2023-04-15T05:10:50;8.47;;;2.90;;
59418;SDS011;45224;50.904;6.038;2023-04-15T05:12:21;6.90;;;2.57;;
59418;SDS011;45224;50.904;6.038;2023-04-15T05:13:52;7.20;;;2.47;;
59418;SDS011;45224;50.904;6.038;2023-04-15T05:15:22;6.30;;;2.83;;
59418;SDS011;45224;50.904;6.038;2023-04-15T05:16:53;6.50;;;2.83;;
59418;SDS011;45224;50.904;6.038;2023-04-15T05:18:23;6.47;;;2.80;;
59418;SDS011;45224;50.904;6.038;2023-04-15T05:19:54;9.30;;;2.60;;
59418;SDS011;45224;50.904;6.038;2023-04-15T05:21:24;6.82;;;2.50;;
59418;SDS011;45224;50.904;6.038;2023-04-15T05:22:56;9.07;;;2.80;;
59418;SDS011;45224;50.904;6.038;2023-04-15T05:24:27;7.13;;;3.00;;
59418;SDS011;45224;50.904;6.038;2023-04-15T05:25:57;8.17;;;2.80;;
59418;SDS011;45224;50.904;6.038;2023-04-15T05:27:28;13.60;;;2.93;;
59418;SDS011;45224;50.904;6.038;2023-04-15T05:28:58;7.50;;;2.97;;
59418;SDS011;45224;50.904;6.038;2023-04-15T05:30:29;6.27;;;2.80;;
59418;SDS011;45224;50.904;6.038;2023-04-15T05:31:59;6.40;;;2.87;;
59418;SDS011;45224;50.904;6.038;2023-04-15T05:33:30;12.33;;;3.70;;
59418;SDS011;45224;50.904;6.038;2023-04-15T05:35:00;11.97;;;3.83;;
59418;SDS011;45224;50.904;6.038;2023-04-15T05:36:31;10.77;;;2.70;;
59418;SDS011;45224;50.904;6.038;2023-04-15T05:38:02;6.93;;;3.70;;
59418;SDS011;45224;50.904;6.038;2023-04-15T05:39:33;8.88;;;2.97;;
59418;SDS011;45224;50.904;6.038;2023-04-15T05:41:03;5.97;;;3.17;;
59418;SDS011;45224;50.904;6.038;2023-04-15T05:42:34;12.00;;;4.43;;
59418;SDS011;45224;50.904;6.038;2023-04-15T05:44:04;4.87;;;2.80;;
59418;SDS011;45224;50.904;6.038;2023-04-15T05:45:35;7.83;;;2.60;;
59418;SDS011;45224;50.904;6.038;2023-04-15T05:47:05;5.30;;;2.60;;
59418;SDS011;45224;50.904;6.038;2023-04-15T05:48:37;8.93;;;3.30;;
59418;SDS011;45224;50.904;6.038;2023-04-15T05:50:07;7.87;;;3.60;;
59418;SDS011;45224;50.904;6.038;2023-04-15T05:51:38;6.80;;;2.95;;
59418;SDS011;45224;50.904;6.038;2023-04-15T05:53:08;11.67;;;3.00;;
59418;SDS011;45224;50.904;6.038;2023-04-15T05:54:39;10.93;;;3.10;;
59418;SDS011;45224;50.904;6.038;2023-04-15T05:56:10;9.57;;;3.20;;
59418;SDS011;45224;50.904;6.038;2023-04-15T05:57:40;5.07;;;2.80;;
59418;SDS011;45224;50.904;6.038;2023-04-15T05:59:11;8.17;;;2.80;;
59418;SDS011;45224;50.904;6.038;2023-04-15T06:00:41;6.23;;;2.80;;
59418;SDS011;45224;50.904;6.038;2023-04-15T06:03:43;10.35;;;2.95;;
59418;SDS011;45224;50.904;6.038;2023-04-15T06:05:13;6.83;;;2.87;;
59418;SDS011;45224;50.904;6.038;2023-04-15T06:06:44;9.13;;;3.40;;
59418;SDS011;45224;50.904;6.038;2023-04-15T06:08:15;10.25;;;3.70;;
59418;SDS011;45224;50.904;6.038;2023-04-15T06:09:46;13.23;;;3.28;;
59418;SDS011;45224;50.904;6.038;2023-04-15T06:11:16;7.07;;;3.57;;
59418;SDS011;45224;50.904;6.038;2023-04-15T06:12:47;9.07;;;3.37;;
59418;SDS011;45224;50.904;6.038;2023-04-15T06:14:17;10.57;;;3.57;;
59418;SDS011;45224;50.904;6.038;2023-04-15T06:15:48;8.70;;;3.73;;
59418;SDS011;45224;50.904;6.038;2023-04-15T06:17:18;8.03;;;3.70;;
59418;SDS011;45224;50.904;6.038;2023-04-15T06:18:49;11.83;;;4.07;;
59418;SDS011;45224;50.904;6.038;2023-04-15T06:20:19;11.70;;;4.30;;
59418;SDS011;45224;50.904;6.038;2023-04-15T06:21:49;8.13;;;3.33;;
59418;SDS011;45224;50.904;6.038;2023-04-15T06:23:20;9.60;;;4.10;;
59418;SDS011;45224;50.904;6.038;2023-04-15T06:24:51;14.17;;;3.43;;
59418;SDS011;45224;50.904;6.038;2023-04-15T06:26:22;7.45;;;3.97;;
59418;SDS011;45224;50.904;6.038;2023-04-15T06:27:52;8.67;;;3.87;;
59418;SDS011;45224;50.904;6.038;2023-04-15T06:29:23;15.53;;;4.07;;
59418;SDS011;45224;50.904;6.038;2023-04-15T06:30:53;11.53;;;4.40;;
59418;SDS011;45224;50.904;6.038;2023-04-15T06:32:24;11.23;;;4.30;;
59418;SDS011;45224;50.904;6.038;2023-04-15T06:33:55;7.70;;;3.78;;
59418;SDS011;45224;50.904;6.038;2023-04-15T06:35:26;10.93;;;4.00;;
59418;SDS011;45224;50.904;6.038;2023-04-15T06:36:56;8.43;;;3.60;;
59418;SDS011;45224;50.904;6.038;2023-04-15T06:38:27;7.10;;;3.93;;
59418;SDS011;45224;50.904;6.038;2023-04-15T06:39:57;13.50;;;4.47;;
59418;SDS011;45224;50.904;6.038;2023-04-15T06:41:28;13.17;;;4.37;;
59418;SDS011;45224;50.904;6.038;2023-04-15T06:42:58;10.73;;;4.35;;
59418;SDS011;45224;50.904;6.038;2023-04-15T06:44:29;9.47;;;3.77;;
59418;SDS011;45224;50.904;6.038;2023-04-15T06:45:59;14.57;;;4.20;;
59418;SDS011;45224;50.904;6.038;2023-04-15T06:47:30;13.90;;;4.93;;
59418;SDS011;45224;50.904;6.038;2023-04-15T06:49:00;9.03;;;4.30;;
59418;SDS011;45224;50.904;6.038;2023-04-15T06:50:32;10.85;;;4.45;;
59418;SDS011;45224;50.904;6.038;2023-04-15T06:52:04;12.52;;;4.07;;
59418;SDS011;45224;50.904;6.038;2023-04-15T06:53:35;8.13;;;4.43;;
59418;SDS011;45224;50.904;6.038;2023-04-15T06:55:10;10.85;;;4.55;;
59418;SDS011;45224;50.904;6.038;2023-04-15T06:56:40;10.60;;;4.10;;
59418;SDS011;45224;50.904;6.038;2023-04-15T06:58:11;8.27;;;4.20;;
59418;SDS011;45224;50.904;6.038;2023-04-15T06:59:41;9.30;;;4.63;;
59418;SDS011;45224;50.904;6.038;2023-04-15T07:01:12;8.38;;;4.20;;
59418;SDS011;45224;50.904;6.038;2023-04-15T07:02:43;10.98;;;4.60;;
59418;SDS011;45224;50.904;6.038;2023-04-15T07:04:14;11.45;;;4.43;;
59418;SDS011;45224;50.904;6.038;2023-04-15T07:05:44;7.23;;;4.07;;
59418;SDS011;45224;50.904;6.038;2023-04-15T07:07:15;8.13;;;4.38;;
59418;SDS011;45224;50.904;6.038;2023-04-15T07:08:46;11.57;;;4.25;;
59418;SDS011;45224;50.904;6.038;2023-04-15T07:10:17;11.77;;;4.73;;
59418;SDS011;45224;50.904;6.038;2023-04-15T07:11:47;6.83;;;4.40;;
59418;SDS011;45224;50.904;6.038;2023-04-15T07:13:18;10.60;;;4.70;;
59418;SDS011;45224;50.904;6.038;2023-04-15T07:14:49;7.57;;;4.60;;
59418;SDS011;45224;50.904;6.038;2023-04-15T07:16:19;10.13;;;4.80;;
59418;SDS011;45224;50.904;6.038;2023-04-15T07:17:50;11.98;;;4.82;;
59418;SDS011;45224;50.904;6.038;2023-04-15T07:19:20;7.20;;;4.23;;
59418;SDS011;45224;50.904;6.038;2023-04-15T07:20:51;10.40;;;4.83;;
59418;SDS011;45224;50.904;6.038;2023-04-15T07:22:21;7.13;;;3.90;;
59418;SDS011;45224;50.904;6.038;2023-04-15T07:23:52;8.10;;;4.30;;
59418;SDS011;45224;50.904;6.038;2023-04-15T07:25:22;10.77;;;4.07;;
59418;SDS011;45224;50.904;6.038;2023-04-15T07:26:53;8.73;;;4.20;;
59418;SDS011;45224;50.904;6.038;2023-04-15T07:28:26;10.07;;;4.22;;
59418;SDS011;45224;50.904;6.038;2023-04-15T07:29:57;7.17;;;4.40;;
59418;SDS011;45224;50.904;6.038;2023-04-15T07:31:27;11.70;;;4.23;;
59418;SDS011;45224;50.904;6.038;2023-04-15T07:32:58;11.30;;;4.90;;
59418;SDS011;45224;50.904;6.038;2023-04-15T07:34:29;9.60;;;4.47;;
59418;SDS011;45224;50.904;6.038;2023-04-15T07:35:59;7.57;;;4.27;;
59418;SDS011;45224;50.904;6.038;2023-04-15T07:37:30;6.67;;;4.20;;
59418;SDS011;45224;50.904;6.038;2023-04-15T07:39:00;10.37;;;4.70;;
59418;SDS011;45224;50.904;6.038;2023-04-15T07:40:32;7.75;;;4.50;;
59418;SDS011;45224;50.904;6.038;2023-04-15T07:42:03;12.68;;;4.50;;
59418;SDS011;45224;50.904;6.038;2023-04-15T07:43:33;8.50;;;4.40;;
59418;SDS011;45224;50.904;6.038;2023-04-15T07:45:04;11.50;;;4.90;;
59418;SDS011;45224;50.904;6.038;2023-04-15T07:46:35;13.73;;;4.50;;
59418;SDS011;45224;50.904;6.038;2023-04-15T07:48:07;9.93;;;4.90;;
59418;SDS011;45224;50.904;6.038;2023-04-15T07:49:37;7.40;;;5.03;;
59418;SDS011;45224;50.904;6.038;2023-04-15T07:51:08;12.23;;;6.27;;
59418;SDS011;45224;50.904;6.038;2023-04-15T07:52:39;12.50;;;5.25;;
59418;SDS011;45224;50.904;6.038;2023-04-15T07:54:10;10.02;;;5.63;;
59418;SDS011;45224;50.904;6.038;2023-04-15T07:55:40;7.77;;;5.40;;
59418;SDS011;45224;50.904;6.038;2023-04-15T07:57:11;9.57;;;5.73;;
59418;SDS011;45224;50.904;6.038;2023-04-15T07:58:41;9.17;;;5.40;;
59418;SDS011;45224;50.904;6.038;2023-04-15T08:00:12;10.20;;;6.22;;
59418;SDS011;45224;50.904;6.038;2023-04-15T08:01:44;8.32;;;5.70;;
59418;SDS011;45224;50.904;6.038;2023-04-15T08:03:14;11.47;;;6.53;;
59418;SDS011;45224;50.904;6.038;2023-04-15T08:04:45;15.63;;;6.43;;
59418;SDS011;45224;50.904;6.038;2023-04-15T08:06:15;9.40;;;6.10;;
59418;SDS011;45224;50.904;6.038;2023-04-15T08:07:46;13.18;;;7.25;;
59418;SDS011;45224;50.904;6.038;2023-04-15T08:09:17;14.70;;;7.10;;
59418;SDS011;45224;50.904;6.038;2023-04-15T08:10:48;9.50;;;6.53;;
59418;SDS011;45224;50.904;6.038;2023-04-15T08:12:19;9.52;;;6.25;;
59418;SDS011;45224;50.904;6.038;2023-04-15T08:13:49;10.00;;;6.77;;
59418;SDS011;45224;50.904;6.038;2023-04-15T08:15:21;10.80;;;6.53;;
59418;SDS011;45224;50.904;6.038;2023-04-15T08:16:51;9.43;;;6.60;;
59418;SDS011;45224;50.904;6.038;2023-04-15T08:18:22;8.90;;;6.43;;
59418;SDS011;45224;50.904;6.038;2023-04-15T08:19:52;7.75;;;6.90;;
59418;SDS011;45224;50.904;6.038;2023-04-15T08:21:23;10.23;;;6.50;;
59418;SDS011;45224;50.904;6.038;2023-04-15T08:22:54;8.77;;;6.65;;
59418;SDS011;45224;50.904;6.038;2023-04-15T08:24:25;9.95;;;6.38;;
59418;SDS011;45224;50.904;6.038;2023-04-15T08:25:56;9.50;;;6.18;;
59418;SDS011;45224;50.904;6.038;2023-04-15T08:27:26;10.03;;;6.97;;
59418;SDS011;45224;50.904;6.038;2023-04-15T08:28:57;10.75;;;7.45;;
59418;SDS011;45224;50.904;6.038;2023-04-15T08:30:28;10.00;;;6.15;;
59418;SDS011;45224;50.904;6.038;2023-04-15T08:31:59;9.10;;;6.70;;
59418;SDS011;45224;50.904;6.038;2023-04-15T08:33:30;8.32;;;6.07;;
59418;SDS011;45224;50.904;6.038;2023-04-15T08:35:01;9.40;;;6.50;;
59418;SDS011;45224;50.904;6.038;2023-04-15T08:36:31;7.67;;;5.90;;
59418;SDS011;45224;50.904;6.038;2023-04-15T08:38:02;8.93;;;6.25;;
59418;SDS011;45224;50.904;6.038;2023-04-15T08:39:33;7.80;;;6.22;;
59418;SDS011;45224;50.904;6.038;2023-04-15T08:41:06;8.23;;;6.65;;
59418;SDS011;45224;50.904;6.038;2023-04-15T08:42:45;7.75;;;6.50;;
59418;SDS011;45224;50.904;6.038;2023-04-15T08:44:20;8.55;;;5.80;;
59418;SDS011;45224;50.904;6.038;2023-04-15T08:45:53;6.25;;;5.65;;
59418;SDS011;45224;50.904;6.038;2023-04-15T08:47:25;7.43;;;6.05;;
59418;SDS011;45224;50.904;6.038;2023-04-15T08:48:59;8.38;;;6.43;;
59418;SDS011;45224;50.904;6.038;2023-04-15T08:50:33;6.80;;;5.38;;
59418;SDS011;45224;50.904;6.038;2023-04-15T08:52:04;7.63;;;5.82;;
59418;SDS011;45224;50.904;6.038;2023-04-15T08:53:35;7.20;;;5.80;;
59418;SDS011;45224;50.904;6.038;2023-04-15T08:55:06;7.72;;;5.05;;
59418;SDS011;45224;50.904;6.038;2023-04-15T08:56:38;6.68;;;5.55;;
59418;SDS011;45224;50.904;6.038;2023-04-15T08:58:10;8.18;;;5.43;;
59418;SDS011;45224;50.904;6.038;2023-04-15T08:59:41;6.40;;;5.57;;
59418;SDS011;45224;50.904;6.038;2023-04-15T09:01:12;9.25;;;5.75;;
59418;SDS011;45224;50.904;6.038;2023-04-15T09:02:43;6.93;;;5.53;;
59418;SDS011;45224;50.904;6.038;2023-04-15T09:04:14;6.32;;;5.15;;
59418;SDS011;45224;50.904;6.038;2023-04-15T09:05:46;8.55;;;5.18;;
59418;SDS011;45224;50.904;6.038;2023-04-15T09:07:17;9.88;;;5.53;;
59418;SDS011;45224;50.904;6.038;2023-04-15T09:08:50;6.03;;;4.90;;
59418;SDS011;45224;50.904;6.038;2023-04-15T09:10:22;5.72;;;4.63;;
59418;SDS011;45224;50.904;6.038;2023-04-15T09:11:52;6.85;;;4.95;;
59418;SDS011;45224;50.904;6.038;2023-04-15T09:13:23;6.35;;;4.25;;
59418;SDS011;45224;50.904;6.038;2023-04-15T09:14:53;6.38;;;4.50;;